Time;durP1;ratioP1;P1;durP2;ratioP2;P2;SDS_P1;SDS_P2;PMS_P1;PMS_P2;Temp;Humidity;BMP_temperature;BMP_pressure;BME280_temperature;BME280_humidity;BME280_pressure;Samples;Min_cycle;Max_cycle;Signal;HPM_P1;HPM_P2
2023/01/20 00:01:46;;;;;;;104.65;41.00;;;;;;;-1.47;100.00;99857.22;5072636;28;20489;-73
2023/01/20 00:04:18;;;;;;;103.78;39.25;;;;;;;-1.46;100.00;99864.44;5072486;28;20029;-72
2023/01/20 00:06:43;;;;;;;115.30;42.88;;;;;;;-1.51;100.00;99860.09;5071564;28;20109;-72
2023/01/20 00:09:30;;;;;;;101.63;41.47;;;;;;;-1.46;100.00;99864.44;5072799;28;20426;-72
2023/01/20 00:11:58;;;;;;;103.28;40.03;;;;;;;-1.47;100.00;99862.84;5072570;28;20044;-73
2023/01/20 00:14:24;;;;;;;94.35;39.58;;;;;;;-1.48;100.00;99862.03;5073785;28;20024;-72
2023/01/20 00:16:51;;;;;;;94.82;38.53;;;;;;;-1.48;100.00;99861.25;5072288;28;20052;-73
2023/01/20 00:19:17;;;;;;;91.72;40.05;;;;;;;-1.50;100.00;99860.84;5074228;28;20032;-72
2023/01/20 00:21:44;;;;;;;90.05;40.15;;;;;;;-1.47;100.00;99851.63;5072272;28;20036;-71
2023/01/20 00:24:11;;;;;;;93.05;36.92;;;;;;;-1.48;100.00;99856.44;5073866;28;20119;-72
2023/01/20 00:26:37;;;;;;;86.82;37.78;;;;;;;-1.49;100.00;99865.25;5072281;28;20064;-72
2023/01/20 00:29:05;;;;;;;86.47;37.95;;;;;;;-1.54;100.00;99860.91;5073852;28;20021;-73
2023/01/20 00:31:33;;;;;;;102.43;37.70;;;;;;;-1.58;100.00;99863.78;5079455;28;20048;-72
2023/01/20 00:33:59;;;;;;;98.57;36.95;;;;;;;-1.63;100.00;99855.84;5093567;28;20034;-72
2023/01/20 00:36:27;;;;;;;93.50;39.90;;;;;;;-1.66;100.00;99867.09;5075564;28;20099;-72
2023/01/20 00:38:54;;;;;;;88.03;37.70;;;;;;;-1.70;100.00;99863.53;5059302;28;20060;-72
2023/01/20 00:41:20;;;;;;;96.10;37.47;;;;;;;-1.74;100.00;99863.59;5093429;28;20032;-72
2023/01/20 00:43:46;;;;;;;99.15;38.08;;;;;;;-1.76;100.00;99868.84;5093361;28;20028;-72
2023/01/20 00:46:13;;;;;;;86.22;36.95;;;;;;;-1.78;100.00;99873.25;5093256;28;20350;-73
2023/01/20 00:48:40;;;;;;;88.28;36.47;;;;;;;-1.82;100.00;99876.09;5058930;28;20059;-73
2023/01/20 00:51:08;;;;;;;91.55;39.53;;;;;;;-1.84;100.00;99877.72;5093024;28;20044;-71
2023/01/20 00:53:36;;;;;;;90.32;40.33;;;;;;;-1.88;100.00;99891.78;5042017;28;20032;-71
2023/01/20 00:56:03;;;;;;;93.50;39.97;;;;;;;-1.90;100.00;99879.41;5075224;28;20035;-72
2023/01/20 00:58:29;;;;;;;92.68;41.33;;;;;;;-1.92;100.00;99888.22;5075267;28;20044;-72
2023/01/20 01:00:57;;;;;;;97.75;41.05;;;;;;;-1.95;100.00;99883.44;5093110;28;20024;-73
2023/01/20 01:03:24;;;;;;;98.47;38.72;;;;;;;-1.99;100.00;99891.09;5093371;28;20024;-72
2023/01/20 01:05:50;;;;;;;87.22;40.28;;;;;;;-2.00;100.00;99895.91;5093459;28;20095;-71
2023/01/20 01:08:16;;;;;;;98.10;40.22;;;;;;;-2.05;100.00;99898.38;5075338;28;20448;-72
2023/01/20 01:10:43;;;;;;;107.57;44.33;;;;;;;-2.10;100.00;99894.00;5093397;28;20020;-72
2023/01/20 01:13:10;;;;;;;107.45;41.05;;;;;;;-2.10;100.00;99904.44;5093078;28;20028;-72
2023/01/20 01:15:36;;;;;;;106.40;42.03;;;;;;;-2.12;100.00;99892.84;5075394;28;20028;-71
2023/01/20 01:18:03;;;;;;;107.35;43.08;;;;;;;-2.15;100.00;99900.06;5093080;28;20026;-73
2023/01/20 01:20:29;;;;;;;114.78;42.65;;;;;;;-2.18;100.00;99900.09;5093410;28;20031;-72
2023/01/20 01:22:56;;;;;;;109.68;43.88;;;;;;;-2.25;100.00;99887.00;5058586;28;20032;-73
2023/01/20 01:25:22;;;;;;;98.38;43.25;;;;;;;-2.22;100.00;99899.34;5093023;28;20024;-72
2023/01/20 01:27:47;;;;;;;103.72;43.70;;;;;;;-2.27;100.00;99895.00;5093250;28;20070;-73
2023/01/20 01:30:15;;;;;;;114.43;45.35;;;;;;;-2.26;100.00;99893.00;5075535;28;20020;-73
2023/01/20 01:32:41;;;;;;;107.57;43.67;;;;;;;-2.28;100.00;99889.81;5092676;28;20048;-73
2023/01/20 01:35:07;;;;;;;112.47;47.80;;;;;;;-2.32;100.00;99889.06;5093336;28;20106;-72
2023/01/20 01:37:34;;;;;;;106.65;44.70;;;;;;;-2.32;100.00;99891.88;5093174;28;20084;-72
2023/01/20 01:40:00;;;;;;;114.70;48.03;;;;;;;-2.39;100.00;99889.94;5093247;28;20099;-73
2023/01/20 01:42:27;;;;;;;121.80;50.65;;;;;;;-2.41;100.00;99886.78;5094115;28;20453;-72
2023/01/20 01:45:17;;;;;;;114.20;49.50;;;;;;;-2.36;100.00;99894.72;5096859;28;20020;-72
2023/01/20 01:48:06;;;;;;;116.00;46.53;;;;;;;-2.35;100.00;99899.09;5078742;28;20556;-72
2023/01/20 01:50:42;;;;;;;121.97;48.88;;;;;;;-2.36;100.00;99894.72;5078610;28;20024;-71
2023/01/20 01:53:08;;;;;;;102.47;45.22;;;;;;;-2.36;100.00;99900.31;5062472;28;20488;-72
2023/01/20 01:55:37;;;;;;;110.55;44.83;;;;;;;-2.37;100.00;99903.50;5061637;28;20039;-73
2023/01/20 01:58:04;;;;;;;113.22;47.35;;;;;;;-2.37;100.00;99907.09;5078028;28;20024;-72
2023/01/20 02:00:30;;;;;;;128.77;49.67;;;;;;;-2.38;100.00;99902.72;5095355;28;20031;-72
2023/01/20 02:02:56;;;;;;;116.38;51.10;;;;;;;-2.36;100.00;99914.28;5095425;28;20020;-72
2023/01/20 02:05:23;;;;;;;107.47;48.53;;;;;;;-2.35;100.00;99926.28;5095467;28;20126;-72
2023/01/20 02:07:53;;;;;;;128.80;50.88;;;;;;;-2.34;100.00;99928.66;5060317;28;20031;-72
2023/01/20 02:10:18;;;;;;;116.45;45.72;;;;;;;-2.32;100.00;99920.63;5077386;28;20035;-72
2023/01/20 02:12:48;;;;;;;118.45;50.15;;;;;;;-2.30;100.00;99918.25;5095612;28;20024;-72
2023/01/20 02:15:21;;;;;;;120.03;48.67;;;;;;;-2.26;100.00;99918.19;5096116;28;20032;-72
2023/01/20 02:18:21;;;;;;;100.80;44.85;;;;;;;-2.21;100.00;99917.75;5061621;28;20491;-72
2023/01/20 02:21:03;;;;;;;122.82;48.35;;;;;;;-2.15;100.00;99922.44;5081566;28;20055;-73
2023/01/20 02:23:58;;;;;;;110.57;46.72;;;;;;;-2.11;100.00;99926.03;5094960;28;20027;-73
2023/01/20 02:26:31;;;;;;;112.18;47.20;;;;;;;-2.08;100.00;99933.59;5094730;28;20032;-72
2023/01/20 02:29:15;;;;;;;111.60;47.42;;;;;;;-2.04;100.00;99933.53;5076976;28;20107;-73
2023/01/20 02:32:08;;;;;;;123.00;49.33;;;;;;;-2.01;100.00;99939.13;5094526;28;20044;-71
2023/01/20 02:34:51;;;;;;;117.90;47.72;;;;;;;-1.95;100.00;99947.06;5095434;28;20031;-71
2023/01/20 02:37:22;;;;;;;117.75;47.70;;;;;;;-1.91;100.00;99956.22;5077833;28;20066;-72
2023/01/20 02:40:21;;;;;;;122.00;48.45;;;;;;;-1.89;100.00;99946.16;5061121;28;20028;-72
2023/01/20 02:42:54;;;;;;;94.80;42.75;;;;;;;-1.86;100.00;99947.34;5095617;28;20462;-72
2023/01/20 02:45:34;;;;;;;119.32;46.55;;;;;;;-1.86;100.00;99941.75;5095231;28;20024;-73
2023/01/20 02:48:16;;;;;;;126.53;47.13;;;;;;;-1.84;100.00;99945.72;5077507;28;20536;-71
2023/01/20 02:50:58;;;;;;;115.82;45.22;;;;;;;-1.83;100.00;99950.09;5095498;28;20377;-73
2023/01/20 02:53:37;;;;;;;110.80;44.35;;;;;;;-1.83;100.00;99947.31;5077669;28;20027;-73
2023/01/20 02:56:11;;;;;;;117.72;49.00;;;;;;;-1.81;100.00;99955.28;5060187;28;20030;-71
2023/01/20 02:58:49;;;;;;;125.88;50.38;;;;;;;-1.81;100.00;99947.69;5077150;28;20031;-72
2023/01/20 03:01:23;;;;;;;107.53;49.70;;;;;;;-1.80;100.00;99943.66;5095219;28;20056;-72
2023/01/20 03:03:59;;;;;;;115.75;46.83;;;;;;;-1.76;100.00;99943.63;5077489;28;20381;-72
2023/01/20 03:06:36;;;;;;;113.63;46.80;;;;;;;-1.77;100.00;99950.44;5077663;28;20070;-71
2023/01/20 03:09:06;;;;;;;116.28;45.78;;;;;;;-1.80;100.00;99948.50;5077265;28;20477;-71
2023/01/20 03:11:44;;;;;;;108.18;44.28;;;;;;;-1.83;100.00;99961.31;5060352;28;20134;-72
2023/01/20 03:14:19;;;;;;;113.93;47.72;;;;;;;-1.84;100.00;99950.50;5060166;28;20541;-72
2023/01/20 03:16:47;;;;;;;116.93;47.75;;;;;;;-1.85;100.00;99971.34;5095057;28;20020;-72
2023/01/20 03:19:15;;;;;;;115.68;47.90;;;;;;;-1.89;100.00;99973.38;5094926;28;20028;-72
2023/01/20 03:21:50;;;;;;;128.80;50.75;;;;;;;-1.97;100.00;99967.06;5060046;28;20032;-72
2023/01/20 03:24:16;;;;;;;125.10;50.85;;;;;;;-2.02;100.00;99973.13;5060310;28;20028;-72
2023/01/20 03:26:50;;;;;;;117.32;47.83;;;;;;;-2.10;100.00;99982.81;5095025;28;20032;-71
2023/01/20 03:29:17;;;;;;;115.10;49.35;;;;;;;-2.15;100.00;99977.66;5076757;28;20112;-71
2023/01/20 03:31:51;;;;;;;122.95;49.28;;;;;;;-2.19;100.00;99982.47;5094005;28;20059;-72
2023/01/20 03:34:20;;;;;;;116.82;46.80;;;;;;;-2.21;100.00;99996.09;5095003;28;20115;-72
2023/01/20 03:36:47;;;;;;;116.25;46.70;;;;;;;-2.26;100.00;99988.94;5076602;28;20035;-73
2023/01/20 03:39:14;;;;;;;119.47;45.80;;;;;;;-2.30;100.00;99990.97;5059888;28;20040;-72
2023/01/20 03:42:04;;;;;;;117.50;47.97;;;;;;;-2.37;100.00;99993.81;5060005;28;20115;-73
2023/01/20 03:44:49;;;;;;;116.78;47.35;;;;;;;-2.41;100.00;99995.88;5094625;28;20114;-72
2023/01/20 03:47:53;;;;;;;129.70;48.47;;;;;;;-2.44;100.00;100005.84;5094372;28;20020;-72
2023/01/20 03:50:49;;;;;;;116.72;45.30;;;;;;;-2.48;100.00;100004.28;5094683;28;20473;-71
2023/01/20 03:53:36;;;;;;;108.38;45.35;;;;;;;-2.48;100.00;100009.91;5094196;28;20035;-71
2023/01/20 03:56:31;;;;;;;111.97;47.63;;;;;;;-2.56;100.00;100005.56;5094389;28;20031;-71
2023/01/20 03:58:59;;;;;;;114.65;45.35;;;;;;;-2.56;100.00;100006.38;5076445;28;20108;-72
2023/01/20 04:01:34;;;;;;;119.90;44.78;;;;;;;-2.58;100.00;100005.97;5059658;28;20051;-72
2023/01/20 04:04:10;;;;;;;111.10;43.38;;;;;;;-2.64;100.00;100009.63;5076156;28;20058;-72
2023/01/20 04:06:38;;;;;;;108.22;42.60;;;;;;;-2.70;100.00;100014.06;5075462;28;20031;-72
2023/01/20 04:09:23;;;;;;;104.65;42.63;;;;;;;-2.69;100.00;100016.44;5094276;28;20027;-72
2023/01/20 04:11:50;;;;;;;109.03;46.67;;;;;;;-2.72;100.00;100027.66;5076048;28;20024;-71
2023/01/20 04:14:17;;;;;;;93.97;40.90;;;;;;;-2.76;100.00;100022.09;5075842;28;20052;-72
2023/01/20 04:16:57;;;;;;;99.07;40.47;;;;;;;-2.76;100.00;100032.47;5076076;28;20020;-71
2023/01/20 04:19:31;;;;;;;103.40;41.25;;;;;;;-2.78;100.00;100037.66;5076013;28;20032;-74
2023/01/20 04:22:08;;;;;;;86.22;38.95;;;;;;;-2.81;100.00;100041.28;5094085;28;20036;-72
2023/01/20 04:24:44;;;;;;;95.60;36.92;;;;;;;-2.85;100.00;100044.13;5075733;28;20338;-71
2023/01/20 04:27:11;;;;;;;108.70;41.15;;;;;;;-2.87;100.00;100046.50;5093810;28;20039;-72
2023/01/20 04:29:37;;;;;;;99.15;40.10;;;;;;;-2.89;100.00;100046.13;5093672;28;20597;-72
2023/01/20 04:32:04;;;;;;;104.55;39.03;;;;;;;-2.91;100.00;100046.53;5093214;28;20048;-71
2023/01/20 04:34:30;;;;;;;97.30;41.67;;;;;;;-2.94;100.00;100050.13;5093858;28;20027;-72
2023/01/20 04:36:56;;;;;;;111.50;43.08;;;;;;;-2.97;100.00;100052.94;5093696;28;20108;-72
2023/01/20 04:39:22;;;;;;;87.78;38.22;;;;;;;-3.00;100.00;100054.56;5093839;28;20106;-71
2023/01/20 04:41:49;;;;;;;85.85;37.92;;;;;;;-3.08;100.00;100047.41;5093632;28;20479;-71
2023/01/20 04:44:14;;;;;;;97.55;38.53;;;;;;;-3.08;100.00;100058.59;5092525;28;20036;-71
2023/01/20 04:46:40;;;;;;;96.93;40.08;;;;;;;-3.14;100.00;100053.84;5093714;28;20031;-70
2023/01/20 04:49:09;;;;;;;103.95;42.42;;;;;;;-3.18;100.00;100061.41;5094000;28;20123;-71
2023/01/20 04:51:35;;;;;;;98.80;38.95;;;;;;;-3.25;100.00;100065.06;5093589;28;20098;-71
2023/01/20 04:54:01;;;;;;;106.20;42.95;;;;;;;-3.33;100.00;100069.06;5075378;28;20028;-71
2023/01/20 04:56:28;;;;;;;112.60;40.83;;;;;;;-3.39;100.00;100091.06;5093392;28;20077;-70
2023/01/20 04:58:54;;;;;;;104.30;41.05;;;;;;;-3.47;100.00;100099.81;5075346;28;20141;-71
2023/01/20 05:01:20;;;;;;;94.88;39.03;;;;;;;-3.45;100.00;100095.44;5093569;28;20082;-71
2023/01/20 05:03:47;;;;;;;91.60;39.13;;;;;;;-3.44;100.00;100108.22;5094193;28;20082;-71
2023/01/20 05:06:12;;;;;;;93.30;38.20;;;;;;;-3.42;100.00;100102.22;5092699;28;20044;-71
2023/01/20 05:08:39;;;;;;;98.82;37.10;;;;;;;-3.41;100.00;100104.59;5093855;28;20039;-70
2023/01/20 05:11:06;;;;;;;99.05;40.88;;;;;;;-3.43;100.00;100095.81;5075496;28;20036;-71
2023/01/20 05:13:37;;;;;;;101.40;40.72;;;;;;;-3.39;100.00;100112.59;5073988;28;20056;-72
2023/01/20 05:16:13;;;;;;;109.30;41.20;;;;;;;-3.38;100.00;100109.38;5093238;28;20020;-73
2023/01/20 05:18:39;;;;;;;96.57;39.95;;;;;;;-3.34;100.00;100117.78;5096169;28;20381;-71
2023/01/20 05:21:07;;;;;;;82.55;39.47;;;;;;;-3.31;100.00;100119.75;5097204;28;20027;-72
2023/01/20 05:23:34;;;;;;;93.95;37.00;;;;;;;-3.29;100.00;100124.94;5097031;28;20106;-72
2023/01/20 05:26:02;;;;;;;92.57;39.05;;;;;;;-3.23;100.00;100124.09;5095993;28;20039;-72
2023/01/20 05:28:27;;;;;;;99.95;39.50;;;;;;;-3.16;100.00;100118.50;5079475;28;20380;-72
2023/01/20 05:30:53;;;;;;;114.22;45.95;;;;;;;-3.11;100.00;100123.69;5078780;28;20030;-71
2023/01/20 05:33:19;;;;;;;111.78;46.08;;;;;;;-3.05;100.00;100130.44;5096648;28;20513;-71
2023/01/20 05:35:53;;;;;;;121.38;44.25;;;;;;;-3.04;100.00;100134.03;5097345;28;20030;-74
2023/01/20 05:38:19;;;;;;;110.80;41.85;;;;;;;-2.99;100.00;100137.19;5096936;28;20115;-73
2023/01/20 05:40:47;;;;;;;121.60;47.75;;;;;;;-2.93;100.00;100127.19;5097068;28;20023;-74
2023/01/20 05:43:13;;;;;;;105.45;48.95;;;;;;;-2.89;100.00;100136.34;5096900;28;20030;-72
2023/01/20 05:45:42;;;;;;;116.43;49.92;;;;;;;-2.73;100.00;100146.28;5096620;28;20024;-73
2023/01/20 05:48:08;;;;;;;117.38;49.42;;;;;;;-2.58;100.00;100140.19;5062903;28;20028;-70
2023/01/20 05:50:34;;;;;;;98.07;44.25;;;;;;;-2.41;100.00;100146.13;5093572;28;20043;-70
2023/01/20 05:53:00;;;;;;;97.15;42.08;;;;;;;-2.28;100.00;100136.03;5092053;28;20036;-72
2023/01/20 05:55:27;;;;;;;113.95;47.72;;;;;;;-2.17;100.00;100143.16;5096799;28;20354;-72
2023/01/20 05:57:53;;;;;;;110.82;48.20;;;;;;;-2.05;100.00;100133.50;5078702;28;20165;-72
2023/01/20 06:00:19;;;;;;;122.30;51.75;;;;;;;-2.03;100.00;100133.84;5092120;28;20047;-71
2023/01/20 06:02:45;;;;;;;124.95;52.20;;;;;;;-2.02;100.00;100127.84;5096522;28;20388;-72
2023/01/20 06:05:13;;;;;;;128.60;52.25;;;;;;;-2.04;100.00;100121.88;5092879;28;20076;-69
2023/01/20 06:07:40;;;;;;;114.32;49.83;;;;;;;-2.18;100.00;100105.19;5096100;28;20372;-70
2023/01/20 06:10:07;;;;;;;140.00;56.15;;;;;;;-2.09;100.00;100113.09;5058765;28;20169;-71
2023/01/20 06:12:32;;;;;;;147.80;59.92;;;;;;;-2.17;100.00;100098.38;5096421;28;20020;-71
2023/01/20 06:14:59;;;;;;;136.13;57.10;;;;;;;-2.25;100.00;100099.66;5096002;28;20051;-69
2023/01/20 06:17:25;;;;;;;140.18;58.13;;;;;;;-2.39;100.00;100113.72;5092802;28;20050;-69
2023/01/20 06:19:52;;;;;;;120.50;52.65;;;;;;;-2.54;100.00;100112.22;5093137;28;20338;-71
2023/01/20 06:22:19;;;;;;;119.07;49.65;;;;;;;-2.65;100.00;100103.91;5077151;28;20040;-70
2023/01/20 06:24:53;;;;;;;134.82;54.42;;;;;;;-2.91;100.00;100079.28;5078391;28;20385;-69
2023/01/20 06:27:20;;;;;;;123.28;53.88;;;;;;;-2.86;100.00;100109.59;5095791;28;20120;-71
2023/01/20 06:29:46;;;;;;;117.38;50.40;;;;;;;-2.94;100.00;100108.06;5094799;28;20028;-69
2023/01/20 06:32:33;;;;;;;125.75;51.03;;;;;;;-3.00;100.00;100104.88;5094531;28;20500;-70
2023/01/20 06:35:15;;;;;;;114.82;45.15;;;;;;;-3.05;100.00;100110.88;5071385;28;20074;-70
2023/01/20 06:37:41;;;;;;;108.80;44.42;;;;;;;-3.09;100.00;100117.69;5095389;28;20485;-70
2023/01/20 06:40:10;;;;;;;103.28;43.33;;;;;;;-3.13;100.00;100122.47;5094693;28;20380;-72
2023/01/20 06:42:35;;;;;;;110.65;46.97;;;;;;;-3.23;100.00;100110.13;5093941;28;20028;-69
2023/01/20 06:45:02;;;;;;;91.13;39.22;;;;;;;-3.14;100.00;100129.28;5074612;28;20047;-70
2023/01/20 06:47:27;;;;;;;100.35;43.15;;;;;;;-3.15;100.00;100139.66;5076231;28;20488;-71
2023/01/20 06:49:53;;;;;;;103.82;41.72;;;;;;;-3.12;100.00;100143.63;5076290;28;20028;-71
2023/01/20 06:52:30;;;;;;;82.03;40.65;;;;;;;-3.13;100.00;100147.63;5074957;28;20036;-70
2023/01/20 06:55:17;;;;;;;109.15;44.70;;;;;;;-3.14;100.00;100144.06;5094209;28;20020;-71
2023/01/20 06:57:43;;;;;;;95.45;41.42;;;;;;;-3.16;100.00;100145.63;5094327;28;20020;-69
2023/01/20 07:00:10;;;;;;;101.82;41.80;;;;;;;-3.14;100.00;100155.22;5095689;28;20103;-69
2023/01/20 07:02:35;;;;;;;96.85;43.17;;;;;;;-3.12;100.00;100155.59;5093797;28;20055;-71
2023/01/20 07:05:06;;;;;;;96.43;41.33;;;;;;;-3.09;100.00;100174.38;5095361;28;20453;-71
2023/01/20 07:07:33;;;;;;;93.60;39.38;;;;;;;-3.06;100.00;100170.75;5095117;28;20023;-69
2023/01/20 07:10:07;;;;;;;88.88;38.47;;;;;;;-3.02;100.00;100177.13;5077238;28;20024;-71
2023/01/20 07:12:41;;;;;;;107.55;39.05;;;;;;;-2.99;100.00;100183.94;5076940;28;20028;-72
2023/01/20 07:15:09;;;;;;;87.65;38.22;;;;;;;-2.96;100.00;100178.31;5076920;28;20091;-70
2023/01/20 07:17:34;;;;;;;94.03;37.90;;;;;;;-2.89;100.00;100186.66;5076823;28;20024;-70
2023/01/20 07:20:00;;;;;;;104.50;40.65;;;;;;;-2.83;100.00;100197.44;5094935;28;20016;-70
2023/01/20 07:22:26;;;;;;;92.60;38.22;;;;;;;-2.77;100.00;100207.00;5095132;28;20024;-70
2023/01/20 07:24:51;;;;;;;96.93;37.95;;;;;;;-2.70;100.00;100213.38;5094711;28;20034;-70
2023/01/20 07:27:18;;;;;;;85.90;37.83;;;;;;;-2.59;100.00;100204.91;5089711;28;20031;-70
2023/01/20 07:29:44;;;;;;;93.90;40.60;;;;;;;-2.52;100.00;100210.50;5092051;28;20031;-72
2023/01/20 07:32:11;;;;;;;93.97;41.65;;;;;;;-2.47;100.00;100210.06;5094379;28;20055;-70
2023/01/20 07:34:38;;;;;;;104.30;42.55;;;;;;;-2.41;100.00;100225.25;5084231;28;20076;-70
2023/01/20 07:37:05;;;;;;;108.85;41.97;;;;;;;-2.36;100.00;100227.63;5074794;28;20458;-70
2023/01/20 07:39:30;;;;;;;101.43;41.13;;;;;;;-2.28;100.00;100234.75;5070873;28;20142;-70
2023/01/20 07:41:58;;;;;;;100.68;43.13;;;;;;;-2.19;100.00;100249.09;5074604;28;20513;-71
2023/01/20 07:44:24;;;;;;;116.63;47.90;;;;;;;-2.13;100.00;100252.28;5074259;28;20044;-70
2023/01/20 07:46:50;;;;;;;118.47;46.78;;;;;;;-2.07;100.00;100256.25;5076789;28;20055;-72
2023/01/20 07:49:16;;;;;;;110.10;49.30;;;;;;;-2.02;100.00;100261.41;5094444;28;20026;-72
2023/01/20 07:51:43;;;;;;;118.57;49.20;;;;;;;-1.90;100.00;100266.53;5094930;28;20032;-72
2023/01/20 07:54:15;;;;;;;123.07;51.47;;;;;;;-1.86;100.00;100267.34;5092567;28;20027;-71
2023/01/20 07:56:41;;;;;;;116.80;50.15;;;;;;;-1.84;100.00;100250.09;5087441;28;20354;-75
2023/01/20 07:59:08;;;;;;;130.45;48.60;;;;;;;-1.80;100.00;100251.66;5076320;28;20519;-75
2023/01/20 08:01:35;;;;;;;133.40;54.70;;;;;;;-1.74;100.00;100250.03;5094531;28;20032;-75
2023/01/20 08:04:01;;;;;;;116.88;50.47;;;;;;;-1.62;100.00;100252.38;5058371;28;20036;-73
2023/01/20 08:06:45;;;;;;;132.02;55.92;;;;;;;-1.85;100.00;100220.53;5059367;28;20031;-75
2023/01/20 08:09:13;;;;;;;134.25;54.40;;;;;;;-1.80;100.00;100200.50;5092823;28;20100;-74
2023/01/20 08:11:39;;;;;;;128.38;52.35;;;;;;;-1.40;100.00;100261.38;5076025;28;20040;-75
2023/01/20 08:14:06;;;;;;;121.78;50.38;;;;;;;-1.29;100.00;100248.09;5075162;28;20039;-72
2023/01/20 08:16:33;;;;;;;114.20;48.88;;;;;;;-1.33;100.00;100238.91;5075906;28;20166;-73
2023/01/20 08:19:00;;;;;;;106.75;48.33;;;;;;;-1.24;100.00;100250.44;5093847;28;20027;-72
2023/01/20 08:21:29;;;;;;;111.45;46.33;;;;;;;-1.06;100.00;100250.28;5094063;28;20102;-72
2023/01/20 08:23:59;;;;;;;106.05;45.45;;;;;;;-0.84;100.00;100270.50;5075805;28;20050;-72
2023/01/20 08:26:28;;;;;;;106.47;45.00;;;;;;;-0.75;100.00;100270.81;5094141;28;20373;-73
2023/01/20 08:28:54;;;;;;;101.32;45.88;;;;;;;-0.50;100.00;100282.56;5059377;28;20457;-73
2023/01/20 08:31:21;;;;;;;101.45;44.03;;;;;;;-0.50;100.00;100282.56;5093577;28;20110;-72
2023/01/20 08:33:52;;;;;;;100.00;43.70;;;;;;;-0.62;100.00;100274.69;5075956;28;20108;-73
2023/01/20 08:36:23;;;;;;;102.43;41.95;;;;;;;-0.70;100.00;100292.78;5058969;28;20093;-73
2023/01/20 08:38:48;;;;;;;95.18;44.03;;;;;;;-0.58;100.00;100295.09;5075557;28;20032;-75
2023/01/20 08:41:17;;;;;;;98.80;44.28;;;;;;;-0.63;100.00;100301.16;5075788;28;20038;-74
2023/01/20 08:43:44;;;;;;;102.18;43.88;;;;;;;-0.67;100.00;100274.34;5075295;28;20086;-76
2023/01/20 08:46:12;;;;;;;104.18;44.28;;;;;;;-0.51;100.00;100295.00;5093353;28;20084;-71
2023/01/20 08:48:39;;;;;;;98.28;42.00;;;;;;;-0.47;100.00;100289.34;5093596;28;20040;-73
2023/01/20 08:51:08;;;;;;;92.32;42.38;;;;;;;-0.48;100.00;100287.75;5093559;28;20046;-71
2023/01/20 08:53:39;;;;;;;97.05;43.22;;;;;;;-0.21;100.00;100296.25;5090606;28;20036;-78
2023/01/20 08:56:08;;;;;;;100.78;44.53;;;;;;;0.03;100.00;100295.13;5075166;28;20044;-76
2023/01/20 08:58:33;;;;;;;84.50;36.63;;;;;;;0.12;100.00;100292.63;5092601;28;20024;-79
2023/01/20 09:00:59;;;;;;;76.30;36.13;;;;;;;0.12;100.00;100293.41;5092940;28;20047;-74
2023/01/20 09:03:25;;;;;;;84.43;36.40;;;;;;;-0.03;100.00;100261.13;5079640;28;20469;-74
2023/01/20 09:05:52;;;;;;;80.05;38.42;;;;;;;0.29;100.00;100296.41;5089425;28;20510;-75
2023/01/20 09:08:18;;;;;;;83.25;35.88;;;;;;;0.53;100.00;100304.47;5064980;28;20118;-79
2023/01/20 09:10:45;;;;;;;88.63;38.30;;;;;;;0.72;100.00;100296.53;5062449;28;20472;-77
2023/01/20 09:13:11;;;;;;;78.72;33.17;;;;;;;0.90;100.00;100309.13;5075212;28;20032;-74
2023/01/20 09:15:37;;;;;;;77.28;32.65;;;;;;;1.05;100.00;100318.13;5093323;28;20044;-74
2023/01/20 09:18:04;;;;;;;73.65;32.92;;;;;;;1.12;100.00;100312.34;5092990;28;20089;-72
2023/01/20 09:20:30;;;;;;;66.85;32.60;;;;;;;1.31;100.00;100320.06;5092714;28;20460;-72
2023/01/20 09:23:01;;;;;;;82.43;34.80;;;;;;;1.58;100.00;100322.00;5074880;28;20391;-72
2023/01/20 09:25:29;;;;;;;71.38;33.75;;;;;;;1.72;100.00;100294.34;5074610;28;20449;-72
2023/01/20 09:27:59;;;;;;;67.60;32.20;;;;;;;2.01;100.00;100314.28;5092787;28;20036;-76
2023/01/20 09:30:26;;;;;;;60.45;28.50;;;;;;;2.16;100.00;100317.59;5074463;28;20044;-72
2023/01/20 09:32:54;;;;;;;65.40;32.55;;;;;;;2.33;100.00;100319.25;5057395;28;20048;-72
2023/01/20 09:35:25;;;;;;;66.25;32.90;;;;;;;2.44;100.00;100316.22;5093140;28;20122;-72
2023/01/20 09:46:36;;;;;;;69.60;34.17;;;;;;;2.16;100.00;100309.16;5072055;28;20539;-76
2023/01/20 09:55:25;;;;;;;79.78;36.08;;;;;;;2.11;100.00;100304.03;5072113;28;20035;-73
2023/01/20 09:57:58;;;;;;;58.55;31.10;;;;;;;2.16;100.00;100300.69;5053987;28;20051;-70
2023/01/20 10:00:26;;;;;;;70.40;30.30;;;;;;;2.08;100.00;100305.69;5072137;28;20493;-72
2023/01/20 10:03:02;;;;;;;68.00;31.88;;;;;;;2.03;100.00;100299.78;5066690;28;20024;-74
2023/01/20 10:05:33;;;;;;;64.78;31.00;;;;;;;2.11;100.00;100306.84;5091856;28;20048;-72
2023/01/20 10:08:03;;;;;;;57.95;29.65;;;;;;;2.20;100.00;100296.56;5061285;28;20454;-73
2023/01/20 10:10:37;;;;;;;58.05;28.38;;;;;;;2.32;100.00;100295.91;5076764;28;20109;-75
2023/01/20 10:13:20;;;;;;;62.78;29.92;;;;;;;2.34;100.00;100293.44;5061302;28;20385;-69
2023/01/20 10:15:55;;;;;;;61.78;27.77;;;;;;;2.33;100.00;100288.25;5096121;28;20085;-73
2023/01/20 10:19:00;;;;;;;62.67;30.48;;;;;;;2.37;100.00;100277.69;5096109;28;20024;-73
2023/01/20 10:21:54;;;;;;;73.72;31.42;;;;;;;2.51;100.00;100280.16;4994104;28;20038;-70
2023/01/20 10:24:39;;;;;;;62.30;30.33;;;;;;;2.60;100.00;100286.00;4992140;28;20406;-71
2023/01/20 10:27:05;;;;;;;62.97;30.17;;;;;;;2.69;100.00;100283.34;4978119;28;20046;-72
2023/01/20 10:29:36;;;;;;;63.63;27.52;;;;;;;2.74;100.00;100293.31;4994436;28;20120;-72
2023/01/20 10:32:28;;;;;;;58.13;26.17;;;;;;;2.77;100.00;100289.63;4993786;28;20042;-71
2023/01/20 10:34:56;;;;;;;49.28;23.23;;;;;;;2.77;100.00;100295.28;4987488;28;20296;-71
2023/01/20 10:37:22;;;;;;;44.17;23.77;;;;;;;2.78;100.00;100296.88;4977631;28;20035;-72
2023/01/20 10:39:56;;;;;;;46.78;22.48;;;;;;;2.76;100.00;100302.94;4994360;28;20046;-72
2023/01/20 10:42:27;;;;;;;40.80;22.27;;;;;;;2.77;100.00;100303.75;4994050;28;20038;-72
2023/01/20 10:44:53;;;;;;;50.80;23.27;;;;;;;2.79;100.00;100315.34;5005979;28;20055;-73
2023/01/20 10:47:32;;;;;;;35.92;19.27;;;;;;;2.81;100.00;100324.19;5074403;28;20025;-70
2023/01/20 10:50:52;;;;;;;41.45;20.40;;;;;;;2.86;100.00;100322.88;5071258;28;20463;-71
2023/01/20 10:53:32;;;;;;;46.35;20.65;;;;;;;2.94;100.00;100315.81;5029597;28;20068;-70
2023/01/20 10:56:16;;;;;;;39.97;20.83;;;;;;;3.00;100.00;100314.84;5055146;28;20430;-74
2023/01/20 10:58:44;;;;;;;40.40;19.38;;;;;;;3.09;100.00;100311.41;5054384;28;20029;-77
2023/01/20 11:01:14;;;;;;;40.67;17.48;;;;;;;3.20;100.00;100324.03;5054078;28;20033;-71
2023/01/20 11:03:42;;;;;;;43.22;21.80;;;;;;;3.35;100.00;100335.75;5037488;28;20036;-73
2023/01/20 11:06:20;;;;;;;47.90;24.17;;;;;;;3.46;100.00;100327.00;5037160;28;20032;-75
2023/01/20 11:08:46;;;;;;;60.83;27.25;;;;;;;3.53;100.00;100332.44;5053596;28;20432;-71
2023/01/20 11:11:15;;;;;;;51.50;27.02;;;;;;;3.54;100.00;100334.84;5053799;28;20523;-69
2023/01/20 11:13:41;;;;;;;54.45;28.92;;;;;;;3.61;100.00;100329.00;5053638;28;20431;-72
2023/01/20 11:16:27;;;;;;;61.95;31.42;;;;;;;3.62;100.00;100326.97;5053281;28;20037;-73
2023/01/20 11:18:55;;;;;;;74.70;34.53;;;;;;;3.61;100.00;100323.34;5074143;28;20028;-73
2023/01/20 11:21:23;;;;;;;68.60;33.50;;;;;;;3.57;100.00;100322.66;5075111;28;20036;-72
2023/01/20 11:23:54;;;;;;;68.85;34.60;;;;;;;3.56;100.00;100334.41;5073891;28;20028;-74
2023/01/20 11:26:24;;;;;;;76.50;33.90;;;;;;;3.50;100.00;100327.69;5074794;28;20028;-73
2023/01/20 11:29:09;;;;;;;75.28;35.58;;;;;;;3.58;100.00;100335.53;5074813;28;20028;-73
2023/01/20 11:31:42;;;;;;;77.70;37.80;;;;;;;3.59;100.00;100333.50;5063901;28;20050;-74
2023/01/20 11:34:28;;;;;;;81.30;37.47;;;;;;;3.63;100.00;100334.19;5076760;28;20114;-72